createdAt,value
2018-01-03T00:01:54.244Z,1.55
2018-01-03T00:04:20.628Z,0.98
2018-01-03T00:06:48.301Z,1.52
2018-01-03T00:09:14.580Z,1.55
2018-01-03T00:11:40.910Z,1.20
2018-01-03T00:14:07.696Z,1.40
2018-01-03T00:16:33.981Z,0.90
2018-01-03T00:19:00.246Z,0.80
2018-01-03T00:21:28.310Z,0.98
2018-01-03T00:23:55.346Z,1.00
2018-01-03T00:26:21.557Z,1.30
2018-01-03T00:28:47.866Z,0.80
2018-01-03T00:31:14.902Z,1.00
2018-01-03T00:33:41.281Z,1.27
2018-01-03T00:36:08.312Z,1.10
2018-01-03T00:38:34.561Z,1.10
2018-01-03T00:41:00.836Z,1.37
2018-01-03T00:43:27.153Z,1.17
2018-01-03T00:45:53.422Z,2.62
2018-01-03T00:48:20.381Z,1.02
2018-01-03T00:50:46.597Z,1.37
2018-01-03T00:53:12.950Z,1.70
2018-01-03T00:55:39.275Z,1.10
2018-01-03T00:58:06.281Z,1.15
2018-01-03T01:00:32.516Z,1.40
2018-01-03T01:02:58.733Z,1.15
2018-01-03T01:05:25.957Z,1.70
2018-01-03T01:07:52.242Z,1.50
2018-01-03T01:10:19.238Z,1.12
2018-01-03T01:12:45.489Z,1.42
2018-01-03T01:15:12.761Z,1.02
2018-01-03T01:17:39.020Z,1.40
2018-01-03T01:20:05.263Z,1.67
2018-01-03T01:22:32.265Z,1.10
2018-01-03T01:24:58.546Z,1.40
2018-01-03T01:27:25.596Z,1.40
2018-01-03T01:29:51.857Z,1.20
2018-01-03T01:32:18.898Z,1.20
2018-01-03T01:34:45.149Z,1.40
2018-01-03T01:37:11.400Z,1.30
2018-01-03T01:39:37.628Z,1.30
2018-01-03T01:42:03.856Z,1.20
2018-01-03T01:44:30.148Z,1.20
2018-01-03T01:46:56.550Z,1.80
2018-01-03T01:49:22.801Z,1.20
2018-01-03T01:51:49.792Z,1.10
2018-01-03T01:54:16.752Z,0.80
2018-01-03T01:56:43.738Z,1.13
2018-01-03T01:59:09.980Z,1.33
2018-01-03T02:01:36.253Z,1.20
2018-01-03T02:04:02.476Z,1.00
2018-01-03T02:06:28.713Z,1.15
2018-01-03T02:08:54.986Z,0.90
2018-01-03T02:11:21.201Z,1.20
2018-01-03T02:13:47.419Z,1.23
2018-01-03T02:16:13.685Z,1.23
2018-01-03T02:18:40.969Z,1.23
2018-01-03T02:21:07.309Z,1.13
2018-01-03T02:23:34.289Z,1.00
2018-01-03T02:26:00.718Z,1.00
2018-01-03T02:28:26.950Z,0.90
2018-01-03T02:30:53.190Z,1.12
2018-01-03T02:33:19.443Z,0.95
2018-01-03T02:35:45.662Z,0.70
2018-01-03T02:38:24.497Z,1.10
2018-01-03T02:40:50.730Z,0.95
2018-01-03T02:43:16.957Z,1.00
2018-01-03T02:45:43.617Z,0.90
2018-01-03T02:48:09.853Z,0.97
2018-01-03T02:50:36.095Z,1.20
2018-01-03T02:53:02.421Z,0.90
2018-01-03T02:55:28.656Z,0.87
2018-01-03T02:57:54.881Z,1.13
2018-01-03T03:00:21.854Z,0.77
2018-01-03T03:02:48.109Z,0.80
2018-01-03T03:05:14.324Z,0.60
2018-01-03T03:07:40.551Z,0.73
2018-01-03T03:10:06.771Z,0.50
2018-01-03T03:12:33.781Z,0.60
2018-01-03T03:15:00.000Z,0.90
2018-01-03T03:17:26.278Z,0.83
2018-01-03T03:19:52.473Z,0.67
2018-01-03T03:22:19.456Z,0.60
2018-01-03T03:24:45.688Z,0.57
2018-01-03T03:27:11.929Z,0.60
2018-01-03T03:29:38.193Z,0.70
2018-01-03T03:32:04.450Z,0.57
2018-01-03T03:34:30.737Z,0.70
2018-01-03T03:36:56.945Z,0.77
2018-01-03T03:39:23.177Z,0.43
2018-01-03T03:41:49.996Z,0.47
2018-01-03T03:44:16.221Z,0.57
2018-01-03T03:46:42.456Z,0.70
2018-01-03T03:49:08.689Z,0.70
2018-01-03T03:51:35.685Z,0.77
2018-01-03T03:54:01.959Z,0.50
2018-01-03T03:56:28.197Z,0.63
2018-01-03T03:58:54.421Z,0.83
2018-01-03T04:01:20.685Z,1.13
2018-01-03T04:03:46.960Z,0.70
2018-01-03T04:06:14.156Z,0.90
2018-01-03T04:08:40.422Z,1.03
2018-01-03T04:11:06.769Z,0.70
2018-01-03T04:13:33.010Z,0.73
2018-01-03T04:15:59.270Z,0.93
2018-01-03T04:18:25.525Z,0.80
2018-01-03T04:20:51.739Z,0.70
2018-01-03T04:23:18.028Z,0.80
2018-01-03T04:25:45.033Z,0.80
2018-01-03T04:28:11.297Z,0.60
2018-01-03T04:30:37.524Z,0.60
2018-01-03T04:33:04.428Z,0.50
2018-01-03T04:35:30.659Z,0.80
2018-01-03T04:37:57.604Z,0.90
2018-01-03T04:40:24.633Z,0.60
2018-01-03T04:42:50.868Z,0.60
2018-01-03T04:45:17.159Z,0.50
2018-01-03T04:47:43.837Z,0.80
2018-01-03T04:50:10.058Z,0.50
2018-01-03T04:52:36.304Z,3.07
2018-01-03T04:55:02.525Z,0.50
2018-01-03T04:57:28.773Z,0.70
2018-01-03T04:59:55.017Z,0.70
2018-01-03T05:02:24.497Z,1.95
2018-01-03T05:04:50.777Z,0.93
2018-01-03T05:07:17.030Z,0.60
2018-01-03T05:09:43.245Z,0.40
2018-01-03T05:12:09.489Z,0.80
2018-01-03T05:14:35.737Z,0.70
2018-01-03T05:17:01.988Z,0.47
2018-01-03T05:19:28.230Z,0.70
2018-01-03T05:21:54.498Z,1.33
2018-01-03T05:24:20.732Z,0.50
2018-01-03T05:26:47.722Z,0.80
2018-01-03T05:29:13.987Z,0.90
2018-01-03T05:31:40.269Z,0.50
2018-01-03T05:34:07.244Z,1.10
2018-01-03T05:36:33.488Z,1.00
2018-01-03T05:38:59.797Z,1.37
2018-01-03T05:41:26.798Z,0.80
2018-01-03T05:43:53.048Z,1.10
2018-01-03T05:46:19.248Z,0.90
2018-01-03T05:48:46.245Z,0.63
2018-01-03T05:51:12.507Z,0.90
2018-01-03T05:53:38.726Z,0.80
2018-01-03T05:56:04.966Z,1.00
2018-01-03T05:58:31.185Z,0.60
2018-01-03T06:00:57.465Z,0.80
2018-01-03T06:03:23.708Z,0.70
2018-01-03T06:05:49.913Z,0.87
2018-01-03T06:08:16.133Z,1.03
2018-01-03T06:10:42.442Z,1.03
2018-01-03T06:13:08.685Z,1.33
2018-01-03T06:15:34.926Z,1.30
2018-01-03T06:18:01.160Z,0.93
2018-01-03T06:20:27.503Z,1.10
2018-01-03T06:22:53.742Z,0.60
2018-01-03T06:25:19.993Z,1.00
2018-01-03T06:27:46.252Z,1.27
2018-01-03T06:30:12.548Z,1.20
2018-01-03T06:32:38.796Z,1.37
2018-01-03T06:35:05.924Z,1.80
2018-01-03T06:37:32.894Z,1.70
2018-01-03T06:39:59.159Z,1.70
2018-01-03T06:42:25.554Z,1.20
2018-01-03T06:44:52.573Z,1.27
2018-01-03T06:47:18.805Z,1.30
2018-01-03T06:49:45.078Z,2.27
2018-01-03T06:52:11.301Z,2.37
2018-01-03T06:54:37.569Z,2.40
2018-01-03T06:57:04.577Z,1.83
2018-01-03T06:59:30.800Z,2.77
2018-01-03T07:01:57.060Z,1.83
2018-01-03T07:04:23.449Z,2.10
2018-01-03T07:06:49.667Z,1.67
2018-01-03T07:09:15.899Z,2.07
2018-01-03T07:11:42.157Z,2.40
2018-01-03T07:14:08.386Z,1.30
2018-01-03T07:16:34.674Z,1.98
2018-01-03T07:19:01.646Z,2.10
2018-01-03T07:21:28.613Z,2.27
2018-01-03T07:23:54.977Z,1.95
2018-01-03T07:26:21.232Z,1.97
2018-01-03T07:28:47.465Z,2.37
2018-01-03T07:31:13.728Z,2.97
2018-01-03T07:33:39.963Z,1.23
2018-01-03T07:36:06.184Z,1.15
2018-01-03T07:38:32.402Z,1.30
2018-01-03T07:40:58.639Z,1.35
2018-01-03T07:43:24.868Z,1.48
2018-01-03T07:45:51.101Z,1.27
2018-01-03T07:48:17.403Z,0.90
2018-01-03T07:50:43.626Z,0.95
2018-01-03T07:53:09.980Z,1.15
2018-01-03T07:55:36.233Z,1.50
2018-01-03T07:58:02.480Z,1.58
2018-01-03T08:00:28.709Z,1.50
2018-01-03T08:02:55.667Z,1.15
2018-01-03T08:08:32.730Z,1.20
2018-01-03T08:10:58.991Z,1.70
2018-01-03T08:13:25.349Z,1.92
2018-01-03T08:15:52.333Z,1.77
2018-01-03T08:18:18.642Z,1.20
2018-01-03T08:20:44.909Z,1.02
2018-01-03T08:23:11.921Z,1.00
2018-01-03T08:25:38.188Z,1.17
2018-01-03T08:28:04.463Z,1.52
2018-01-03T08:30:30.697Z,0.98
2018-01-03T08:32:56.937Z,1.40
2018-01-03T08:35:23.181Z,1.10
2018-01-03T08:37:49.437Z,1.30
2018-01-03T08:40:15.753Z,1.48
2018-01-03T08:42:41.972Z,0.98
2018-01-03T08:45:08.223Z,1.27
2018-01-03T08:47:34.480Z,1.35
2018-01-03T08:50:00.733Z,1.58
2018-01-03T08:52:27.006Z,1.42
2018-01-03T08:54:53.339Z,1.85
2018-01-03T08:57:19.617Z,1.60
2018-01-03T08:59:45.848Z,1.37
2018-01-03T09:02:13.276Z,1.10
2018-01-03T09:04:39.470Z,2.17
2018-01-03T09:07:05.723Z,1.67
2018-01-03T09:09:31.986Z,1.73
2018-01-03T09:11:58.256Z,1.90
2018-01-03T09:14:25.589Z,2.10
2018-01-03T09:16:51.835Z,2.20
2018-01-03T09:19:18.841Z,2.15
2018-01-03T09:21:45.813Z,2.60
2018-01-03T09:24:12.076Z,2.97
2018-01-03T09:26:39.361Z,2.90
2018-01-03T09:29:05.697Z,2.30
2018-01-03T09:31:32.715Z,3.08
2018-01-03T09:33:59.011Z,2.92
2018-01-03T09:36:25.374Z,2.50
2018-01-03T09:38:52.369Z,3.30
2018-01-03T09:41:19.345Z,3.50
2018-01-03T09:43:45.606Z,3.85
2018-01-03T09:46:11.854Z,2.90
2018-01-03T09:48:38.196Z,2.53
2018-01-03T09:51:04.585Z,2.57
2018-01-03T09:53:30.885Z,2.30
2018-01-03T09:55:57.884Z,3.50
2018-01-03T09:58:24.151Z,2.70
2018-01-03T10:00:50.417Z,2.30
2018-01-03T10:03:16.670Z,2.70
2018-01-03T10:05:42.982Z,2.70
2018-01-03T10:08:09.957Z,2.80
2018-01-03T10:10:36.195Z,3.17
2018-01-03T10:13:03.170Z,3.75
2018-01-03T10:15:29.418Z,3.28
2018-01-03T10:17:56.479Z,2.72
2018-01-03T10:20:22.720Z,2.72
2018-01-03T10:22:48.996Z,3.20
2018-01-03T10:25:15.270Z,2.62
2018-01-03T10:27:46.133Z,2.25
2018-01-03T10:30:20.148Z,2.80
2018-01-03T10:32:46.458Z,3.10
2018-01-03T10:35:12.711Z,2.90
2018-01-03T10:37:38.983Z,3.20
2018-01-03T10:40:05.405Z,1.90
2018-01-03T10:42:34.526Z,2.50
2018-01-03T10:45:00.793Z,3.22
2018-01-03T10:47:27.013Z,3.60
2018-01-03T10:49:53.301Z,3.17
2018-01-03T10:52:19.535Z,3.03
2018-01-03T10:54:45.794Z,3.07
2018-01-03T10:57:12.093Z,3.72
2018-01-03T10:59:38.340Z,2.40
2018-01-03T11:02:04.589Z,2.92
2018-01-03T11:04:31.687Z,2.65
2018-01-03T11:06:57.705Z,3.70
2018-01-03T11:09:23.808Z,3.40
2018-01-03T11:11:49.882Z,3.15
2018-01-03T11:14:15.906Z,4.95
2018-01-03T11:16:41.949Z,3.90
2018-01-03T11:19:07.979Z,2.92
2018-01-03T11:23:57.889Z,3.83
2018-01-03T11:26:24.047Z,3.53
2018-01-03T11:28:50.872Z,3.50
2018-01-03T11:31:16.903Z,3.42
2018-01-03T11:33:42.984Z,3.22
2018-01-03T11:36:09.057Z,4.70
2018-01-03T11:38:35.912Z,4.18
2018-01-03T11:41:02.073Z,5.68
2018-01-03T11:43:28.134Z,3.95
2018-01-03T11:45:54.193Z,4.18
2018-01-03T11:48:20.338Z,4.40
2018-01-03T11:50:46.402Z,3.70
2018-01-03T11:53:12.477Z,3.67
2018-01-03T11:55:38.546Z,4.00
2018-01-03T11:58:04.624Z,5.82
2018-01-03T12:00:30.684Z,5.05
2018-01-03T12:02:56.748Z,3.83
2018-01-03T12:05:22.801Z,4.15
2018-01-03T12:07:48.862Z,4.95
2018-01-03T12:10:14.926Z,5.50
2018-01-03T12:12:41.003Z,4.82
2018-01-03T12:15:07.061Z,4.35
2018-01-03T12:17:33.113Z,4.20
2018-01-03T12:19:59.927Z,4.50
2018-01-03T12:22:26.014Z,4.78
2018-01-03T12:24:52.084Z,5.32
2018-01-03T12:27:18.161Z,5.28
2018-01-03T12:29:44.237Z,4.95
2018-01-03T12:32:10.308Z,4.30
2018-01-03T12:34:36.365Z,5.90
2018-01-03T12:37:02.430Z,4.65
2018-01-03T12:39:29.246Z,5.35
2018-01-03T12:41:55.292Z,4.62
2018-01-03T12:44:22.102Z,5.35
2018-01-03T12:46:48.149Z,5.47
2018-01-03T12:49:14.233Z,6.20
2018-01-03T12:51:40.295Z,6.00
2018-01-03T12:54:06.354Z,6.97
2018-01-03T12:56:32.424Z,6.05
2018-01-03T12:58:58.595Z,5.65
2018-01-03T13:01:25.419Z,4.43
2018-01-03T13:03:51.490Z,5.15
2018-01-03T13:06:17.553Z,5.40
2018-01-03T13:08:43.602Z,4.20
2018-01-03T13:11:09.679Z,3.55
2018-01-03T13:13:35.732Z,4.70
2018-01-03T13:16:01.788Z,4.78
2018-01-03T13:18:28.623Z,4.30
2018-01-03T13:20:54.690Z,5.55
2018-01-03T13:23:20.760Z,3.78
2018-01-03T13:25:46.810Z,4.50
2018-01-03T13:28:13.617Z,4.28
2018-01-03T13:30:39.685Z,4.50
2018-01-03T13:33:05.776Z,3.75
2018-01-03T13:35:37.017Z,3.58
2018-01-03T13:38:03.099Z,3.85
2018-01-03T13:40:29.153Z,6.15
2018-01-03T13:42:55.391Z,5.07
2018-01-03T13:45:21.474Z,4.95
2018-01-03T13:47:47.545Z,3.70
2018-01-03T13:50:13.673Z,3.58
2018-01-03T13:52:40.505Z,4.20
2018-01-03T13:55:08.685Z,7.47
2018-01-03T13:57:34.769Z,3.97
2018-01-03T14:00:00.899Z,4.60
2018-01-03T14:02:27.017Z,7.70
2018-01-03T14:04:53.118Z,4.75
2018-01-03T14:07:19.205Z,3.10
2018-01-03T14:09:45.311Z,2.70
2018-01-03T14:12:12.110Z,3.92
2018-01-03T14:14:44.293Z,3.85
2018-01-03T14:17:11.115Z,4.15
2018-01-03T14:19:37.190Z,4.70
2018-01-03T14:22:03.308Z,4.25
2018-01-03T14:24:30.112Z,4.22
2018-01-03T14:26:56.173Z,2.85
2018-01-03T14:29:23.025Z,2.37
2018-01-03T14:31:52.834Z,3.17
2018-01-03T14:34:18.857Z,4.25
2018-01-03T14:36:44.987Z,2.97
2018-01-03T14:39:11.036Z,2.62
2018-01-03T14:41:37.057Z,3.50
2018-01-03T14:44:03.144Z,2.10
2018-01-03T14:46:29.173Z,3.70
2018-01-03T14:48:55.261Z,3.22
2018-01-03T14:51:22.116Z,5.10
2018-01-03T14:53:48.180Z,4.20
2018-01-03T14:56:14.217Z,3.80
2018-01-03T14:58:40.280Z,3.45
2018-01-03T15:01:06.329Z,3.55
2018-01-03T15:03:32.501Z,5.43
2018-01-03T15:05:59.288Z,3.62
2018-01-03T15:14:25.864Z,4.47
2018-01-03T15:16:52.122Z,3.75
2018-01-03T15:19:18.358Z,4.25
2018-01-03T15:21:44.694Z,3.65
2018-01-03T15:24:11.701Z,4.97
2018-01-03T15:26:37.972Z,5.25
2018-01-03T15:29:04.243Z,3.90
2018-01-03T15:31:30.539Z,2.58
2018-01-03T15:33:57.529Z,4.25
2018-01-03T15:36:23.800Z,3.00
2018-01-03T15:38:50.808Z,3.92
2018-01-03T15:41:17.096Z,3.10
2018-01-03T15:43:43.358Z,3.60
2018-01-03T15:46:09.684Z,3.33
2018-01-03T15:48:36.167Z,3.92
2018-01-03T15:51:03.161Z,3.75
2018-01-03T15:53:29.432Z,4.07
2018-01-03T15:55:55.693Z,3.75
2018-01-03T15:58:22.014Z,3.50
2018-01-03T16:00:48.276Z,3.65
2018-01-03T16:03:14.548Z,3.25
2018-01-03T16:05:41.608Z,4.03
2018-01-03T16:08:08.717Z,3.92
2018-01-03T16:10:35.802Z,4.95
2018-01-03T16:13:02.916Z,2.85
2018-01-03T16:15:29.175Z,2.85
2018-01-03T16:17:56.233Z,3.62
2018-01-03T16:20:22.441Z,3.65
2018-01-03T16:22:49.445Z,3.20
2018-01-03T16:25:16.425Z,2.70
2018-01-03T16:27:43.497Z,2.95
2018-01-03T16:30:09.809Z,3.58
2018-01-03T16:32:36.156Z,3.28
2018-01-03T16:35:03.259Z,3.03
2018-01-03T16:37:29.550Z,3.10
2018-01-03T16:39:55.841Z,3.28
2018-01-03T16:42:22.102Z,3.53
2018-01-03T16:44:48.400Z,3.37
2018-01-03T16:47:15.579Z,4.32
2018-01-03T16:49:41.846Z,3.40
2018-01-03T16:52:14.289Z,3.58
2018-01-03T16:54:40.789Z,3.45
2018-01-03T16:57:07.796Z,3.72
2018-01-03T16:59:34.164Z,3.55
2018-01-03T17:02:01.243Z,3.92
2018-01-03T17:04:28.378Z,4.85
2018-01-03T17:06:54.725Z,4.25
2018-01-03T17:09:21.031Z,3.78
2018-01-03T17:11:47.357Z,5.87
2018-01-03T17:14:13.694Z,6.75
2018-01-03T17:16:39.977Z,5.78
2018-01-03T17:19:06.341Z,5.50
2018-01-03T17:21:32.625Z,4.80
2018-01-03T17:23:58.858Z,4.07
2018-01-03T17:26:25.185Z,2.75
2018-01-03T17:28:51.452Z,3.85
2018-01-03T17:31:17.720Z,4.32
2018-01-03T17:33:43.994Z,5.03
2018-01-03T17:36:11.050Z,4.90
2018-01-03T17:38:37.324Z,5.80
2018-01-03T17:41:03.593Z,5.30
2018-01-03T17:43:29.995Z,5.37
2018-01-03T17:45:56.305Z,5.53
2018-01-03T17:48:22.588Z,6.18
2018-01-03T17:50:49.636Z,5.60
2018-01-03T17:53:16.662Z,4.35
2018-01-03T17:55:42.937Z,3.53
2018-01-03T17:58:09.224Z,3.65
2018-01-03T18:00:36.223Z,5.05
2018-01-03T18:03:02.496Z,4.57
2018-01-03T18:05:29.516Z,5.05
2018-01-03T18:07:56.926Z,3.85
2018-01-03T18:10:23.241Z,4.68
2018-01-03T18:12:50.224Z,4.28
2018-01-03T18:15:16.526Z,5.97
2018-01-03T18:17:43.516Z,5.35
2018-01-03T18:20:09.777Z,5.45
2018-01-03T18:22:36.781Z,4.93
2018-01-03T18:25:03.045Z,4.85
2018-01-03T18:27:29.290Z,7.03
2018-01-03T18:29:55.553Z,5.03
2018-01-03T18:32:21.800Z,5.07
2018-01-03T18:34:48.087Z,4.28
2018-01-03T18:37:14.338Z,4.50
2018-01-03T18:39:40.633Z,5.00
2018-01-03T18:42:07.677Z,4.40
2018-01-03T18:44:33.969Z,5.30
2018-01-03T18:47:00.253Z,5.90
2018-01-03T18:49:26.591Z,5.32
2018-01-03T18:51:52.844Z,4.90
2018-01-03T18:54:19.149Z,3.72
2018-01-03T18:56:45.429Z,3.95
2018-01-03T18:59:12.456Z,3.85
2018-01-03T19:01:38.744Z,3.47
2018-01-03T19:04:05.213Z,3.50
2018-01-03T19:06:31.474Z,3.37
2018-01-03T19:08:57.809Z,2.80
2018-01-03T19:11:24.674Z,2.62
2018-01-03T19:13:51.025Z,3.17
2018-01-03T19:16:17.326Z,2.20
2018-01-03T19:18:43.670Z,2.30
2018-01-03T19:21:10.072Z,3.22
2018-01-03T19:23:36.439Z,2.50
2018-01-03T19:26:02.720Z,3.70
2018-01-03T19:28:29.067Z,1.90
2018-01-03T19:30:56.929Z,2.67
2018-01-03T19:33:24.732Z,2.33
2018-01-03T19:35:51.132Z,2.60
2018-01-03T19:38:17.408Z,4.10
2018-01-03T19:40:43.715Z,3.40
2018-01-03T19:43:10.004Z,5.00
2018-01-03T19:45:37.004Z,4.00
2018-01-03T19:48:03.275Z,3.05
2018-01-03T19:50:30.307Z,4.03
2018-01-03T19:52:57.325Z,4.07
2018-01-03T19:55:23.706Z,4.10
2018-01-03T19:57:50.162Z,4.03
2018-01-03T20:00:16.452Z,3.65
2018-01-03T20:02:42.977Z,4.03
2018-01-03T20:05:10.121Z,3.72
2018-01-03T20:07:37.276Z,4.30
2018-01-03T20:10:04.610Z,4.90
2018-01-03T20:12:30.979Z,4.95
2018-01-03T20:14:57.300Z,4.53
2018-01-03T20:17:23.645Z,4.43
2018-01-03T20:19:50.013Z,5.25
2018-01-03T20:22:16.449Z,4.07
2018-01-03T20:24:42.713Z,3.85
2018-01-03T20:27:09.702Z,5.07
2018-01-03T20:29:35.970Z,4.55
2018-01-03T20:32:02.318Z,5.07
2018-01-03T20:34:28.599Z,5.28
2018-01-03T20:36:54.970Z,6.68
2018-01-03T20:39:21.341Z,4.50
2018-01-03T20:41:47.624Z,3.90
2018-01-03T20:44:14.681Z,3.35
2018-01-03T20:46:41.010Z,3.85
2018-01-03T20:49:08.000Z,4.97
2018-01-03T20:51:34.253Z,3.62
2018-01-03T20:54:00.627Z,4.07
2018-01-03T20:56:26.917Z,4.70
2018-01-03T20:58:54.072Z,4.18
2018-01-03T21:01:20.396Z,4.62
2018-01-03T21:03:46.734Z,6.03
2018-01-03T21:06:13.794Z,4.25
2018-01-03T21:08:40.151Z,4.62
2018-01-03T21:11:06.210Z,5.25
2018-01-03T21:13:32.417Z,5.87
2018-01-03T21:15:58.593Z,5.90
2018-01-03T21:18:25.383Z,4.87
2018-01-03T21:20:51.560Z,5.10
2018-01-03T21:23:18.387Z,6.37
2018-01-03T21:25:45.552Z,5.82
2018-01-03T21:28:12.358Z,6.22
2018-01-03T21:30:39.517Z,5.37
2018-01-03T21:33:05.689Z,5.97
2018-01-03T21:35:31.766Z,6.10
2018-01-03T21:37:58.677Z,6.35
2018-01-03T21:40:24.805Z,6.93
2018-01-03T21:42:50.849Z,6.47
2018-01-03T21:45:17.201Z,6.18
2018-01-03T21:47:44.030Z,5.85
2018-01-03T21:50:10.924Z,6.90
2018-01-03T21:52:37.076Z,6.75
2018-01-03T21:55:03.148Z,7.35
2018-01-03T21:57:29.225Z,7.25
2018-01-03T21:59:55.505Z,5.78
2018-01-03T22:02:21.616Z,6.30
2018-01-03T22:04:48.454Z,5.70
2018-01-03T22:07:14.585Z,5.80
2018-01-03T22:09:40.645Z,6.43
2018-01-03T22:12:06.700Z,5.82
2018-01-03T22:14:33.517Z,6.93
2018-01-03T22:16:59.597Z,6.37
2018-01-03T22:19:25.726Z,5.82
2018-01-03T22:21:51.845Z,6.10
2018-01-03T22:24:17.937Z,7.70
2018-01-03T22:26:44.040Z,6.90
2018-01-03T22:29:10.096Z,7.00
2018-01-03T22:31:37.202Z,7.32
2018-01-03T22:34:03.315Z,7.55
2018-01-03T22:36:29.415Z,5.47
2018-01-03T22:38:55.582Z,5.90
2018-01-03T22:41:21.665Z,6.72
2018-01-03T22:43:47.981Z,5.65
2018-01-03T22:46:15.021Z,7.65
2018-01-03T22:48:42.062Z,6.50
2018-01-03T22:51:08.887Z,5.75
2018-01-03T22:53:35.169Z,6.68
2018-01-03T22:56:01.489Z,7.25
2018-01-03T22:58:27.866Z,5.82
2018-01-03T23:00:54.216Z,6.72
2018-01-03T23:03:20.590Z,5.60
2018-01-03T23:05:46.949Z,8.23
2018-01-03T23:08:14.004Z,6.50
2018-01-03T23:10:40.279Z,5.68
2018-01-03T23:13:06.589Z,5.87
2018-01-03T23:15:32.944Z,5.57
2018-01-03T23:17:59.395Z,6.45
2018-01-03T23:20:25.700Z,5.93
2018-01-03T23:22:52.709Z,5.60
2018-01-03T23:25:19.790Z,6.35
2018-01-03T23:27:46.099Z,5.62
2018-01-03T23:30:13.170Z,5.40
2018-01-03T23:32:39.445Z,5.55
2018-01-03T23:35:05.757Z,5.45
2018-01-03T23:37:32.089Z,7.12
2018-01-03T23:39:58.386Z,8.43
2018-01-03T23:42:24.726Z,6.43
2018-01-03T23:44:51.044Z,5.35
2018-01-03T23:47:17.336Z,5.50
2018-01-03T23:49:44.357Z,5.60
2018-01-03T23:52:10.606Z,5.70
2018-01-03T23:54:36.893Z,6.78
2018-01-03T23:57:03.202Z,5.65
2018-01-03T23:59:29.478Z,5.50
